»·PEaware :: N974TA KSMO-KSMO

N974TA :: KSMO-KSMO

FLIGHT INFORMATION

Flight Status: Arrived
Operator: Privately registered:
United States
More flights under this callsign
Pilot: Tom H. (31582)
Aircraft: CESSNA 172 SKYHAWK
(C172)
More flights by this aircraft type
Origin: KSMO Santa Monica Mun
United States
Destination: KSMO Santa Monica Mun
United States
More flights between these airports :: More routes between these airports
Route: +
File this flight plan on PilotEdge
Remarks:
Altitude:
(Current/Filed)
0ft
Speed:
(Current/Filed)
0kts
Departed: 18-Sep-20 06:37 PM
Arrived: 18-Sep-20 07:41 PM
Distance/Time
Traveled:
0nm/1:04
Distance/Time
To Go:
Arrived

Flight Plot

Page will automatically refresh every two minutes.


Map Options




Map Legend


Flown Route
Filed Route
Departure Airport
Arrival Airport
Navaid (VOR, NDB)
Fix

Horizontal Profiles

Position Reports

Time Latitude Longitude Heading Altitude Ground
Speed
18-Sep-20 18:35 34.020198 -118.445648 348 176ft 10kts
18-Sep-20 18:36 34.013104 -118.454200 223 278ft 83kts
18-Sep-20 18:37 34.002593 -118.469120 242 923ft 77kts
18-Sep-20 18:38 34.001416 -118.490398 319 1681ft 75kts
18-Sep-20 18:40 34.017908 -118.507201 315 2427ft 79kts
18-Sep-20 18:41 34.028921 -118.533129 288 2584ft 99kts
18-Sep-20 18:42 34.034964 -118.565073 223 2431ft 102kts
18-Sep-20 18:43 34.028751 -118.593704 277 2551ft 85kts
18-Sep-20 18:44 34.030938 -118.614194 256 2521ft 55kts
18-Sep-20 18:45 34.027678 -118.602966 72 2518ft 69kts
18-Sep-20 18:46 34.033575 -118.572216 79 2652ft 100kts
18-Sep-20 18:47 34.035746 -118.546471 63 2209ft 89kts
18-Sep-20 18:48 34.040338 -118.566962 265 2610ft 75kts
18-Sep-20 18:49 34.038801 -118.589814 264 2323ft 78kts
18-Sep-20 18:50 34.037229 -118.615802 271 2447ft 50kts
18-Sep-20 18:51 34.027159 -118.627930 107 2593ft 113kts
18-Sep-20 18:52 34.033910 -118.590906 81 2536ft 96kts
18-Sep-20 18:53 34.037384 -118.564303 68 2459ft 86kts
18-Sep-20 18:54 34.041291 -118.559884 128 2691ft 105kts
18-Sep-20 18:54 34.039914 -118.547971 26 2451ft 89kts
18-Sep-20 18:55 34.041249 -118.571585 277 2663ft 92kts
18-Sep-20 18:57 34.048217 -118.558203 236 2632ft 99kts
18-Sep-20 18:58 34.048007 -118.585831 11 2491ft 94kts
18-Sep-20 18:58 34.059926 -118.563794 46 2483ft 94kts
18-Sep-20 18:59 34.074641 -118.536480 69 2596ft 105kts
18-Sep-20 19:01 34.085596 -118.497090 65 2595ft 103kts
18-Sep-20 19:01 34.094973 -118.469989 69 2588ft 104kts
18-Sep-20 19:02 34.100837 -118.435264 80 2571ft 104kts
18-Sep-20 19:03 34.100226 -118.399871 99 2575ft 105kts
18-Sep-20 19:04 34.103438 -118.364720 84 2549ft 106kts
18-Sep-20 19:05 34.104936 -118.329259 79 2390ft 109kts
18-Sep-20 19:06 34.096561 -118.315903 248 2031ft 93kts
18-Sep-20 19:07 34.091568 -118.346147 267 2029ft 91kts
18-Sep-20 19:08 34.093039 -118.377649 275 2158ft 90kts
18-Sep-20 19:09 34.095170 -118.408688 278 2568ft 94kts
18-Sep-20 19:10 34.095512 -118.440786 274 2622ft 96kts
18-Sep-20 19:11 34.100906 -118.472406 276 2633ft 95kts
18-Sep-20 19:12 34.089864 -118.500657 179 2546ft 106kts
18-Sep-20 19:13 34.093013 -118.469200 91 2573ft 102kts
18-Sep-20 19:14 34.096016 -118.435354 69 2606ft 101kts
18-Sep-20 19:15 34.100366 -118.400832 88 2591ft 102kts
18-Sep-20 19:16 34.106646 -118.383790 247 2468ft 101kts
18-Sep-20 19:17 34.098157 -118.413623 268 2551ft 96kts
18-Sep-20 19:18 34.099258 -118.445620 272 2613ft 91kts
18-Sep-20 19:19 34.099986 -118.477750 269 2603ft 96kts
18-Sep-20 19:20 34.090644 -118.506547 179 2525ft 107kts
18-Sep-20 19:21 34.093062 -118.473546 89 2573ft 109kts
18-Sep-20 19:22 34.093595 -118.437714 83 2506ft 104kts
18-Sep-20 19:23 34.094502 -118.403558 97 2511ft 100kts
18-Sep-20 19:24 34.094563 -118.369784 91 2506ft 101kts
18-Sep-20 19:25 34.094955 -118.336193 68 2496ft 101kts
18-Sep-20 19:26 34.103224 -118.303974 70 2065ft 103kts
18-Sep-20 19:27 34.111342 -118.301907 248 1895ft 91kts
18-Sep-20 19:28 34.105959 -118.330652 260 2116ft 91kts
18-Sep-20 19:29 34.102856 -118.360929 260 2299ft 91kts
18-Sep-20 19:30 34.101820 -118.391708 268 2449ft 92kts
18-Sep-20 19:31 34.101882 -118.422135 248 2625ft 93kts
18-Sep-20 19:32 34.096531 -118.452093 277 2802ft 92kts
18-Sep-20 19:33 34.095440 -118.482803 253 2950ft 90kts
18-Sep-20 19:34 34.083348 -118.500384 88 2784ft 114kts
18-Sep-20 19:35 34.089785 -118.466040 86 2708ft 102kts
18-Sep-20 19:36 34.084611 -118.437084 188 2573ft 81kts
18-Sep-20 19:37 34.060425 -118.444655 197 1674ft 102kts
18-Sep-20 19:38 34.036723 -118.436839 147 736ft 80kts
18-Sep-20 19:39 34.021070 -118.445091 227 227ft 67kts
18-Sep-20 19:40 34.014552 -118.452186 127 150ft 0kts
18-Sep-20 19:41 34.014552 -118.452186 126 150ft 0kts
18-Sep-20 19:42 34.017962 -118.447698 45 163ft 21kts
18-Sep-20 19:43 34.018468 -118.446633 138 168ft 0kts

Navigation Log

Ident Type
Flight plan parsing failed, navigation log unavailable